Time;durP1;ratioP1;P1;durP2;ratioP2;P2;SDS_P1;SDS_P2;PMS_P1;PMS_P2;Temp;Humidity;BMP_temperature;BMP_pressure;BME280_temperature;BME280_humidity;BME280_pressure;Samples;Min_cycle;Max_cycle;Signal;HPM_P1;HPM_P2
2021/06/01 00:01:09;;;;;;;18.02;12.40;;;;;;;-142.75;64.78;77611.75;5039705;28;20028;-75
2021/06/01 00:03:35;;;;;;;19.60;13.25;;;;;;;-142.75;64.34;77605.84;5050967;28;20028;-76
2021/06/01 00:06:00;;;;;;;19.33;12.27;;;;;;;-142.75;64.47;77601.91;5037903;28;20029;-77
2021/06/01 00:08:25;;;;;;;20.50;12.05;;;;;;;-142.75;64.30;77609.78;5016112;28;20029;-75
2021/06/01 00:10:51;;;;;;;21.55;13.45;;;;;;;-142.75;64.24;77601.91;5044923;28;20024;-76
2021/06/01 00:13:16;;;;;;;18.60;12.20;;;;;;;-142.75;64.21;77611.75;5031690;28;20025;-76
2021/06/01 00:15:41;;;;;;;20.13;12.05;;;;;;;-142.75;63.96;77603.88;5050092;28;20033;-76
2021/06/01 00:18:06;;;;;;;17.92;11.65;;;;;;;-142.75;63.44;77611.75;5038278;28;20017;-76
2021/06/01 00:20:32;;;;;;;16.23;10.68;;;;;;;-142.75;63.50;77607.81;5039759;28;20025;-74
2021/06/01 00:22:57;;;;;;;14.85;11.15;;;;;;;-142.75;63.61;77615.69;5040902;28;20459;-76
2021/06/01 00:25:22;;;;;;;18.98;10.23;;;;;;;-142.75;63.68;77613.72;5016369;28;20025;-73
2021/06/01 00:27:47;;;;;;;13.60;9.75;;;;;;;-142.75;63.98;77621.59;5034020;28;20033;-75
2021/06/01 00:30:13;;;;;;;16.98;10.52;;;;;;;-142.75;64.37;77625.53;5036823;28;20036;-76
2021/06/01 00:32:39;;;;;;;16.25;9.77;;;;;;;-142.75;64.16;77629.47;5035561;28;20438;-76
2021/06/01 00:35:04;;;;;;;17.70;10.10;;;;;;;-142.75;63.70;77625.53;5036557;28;20487;-76
2021/06/01 00:37:30;;;;;;;15.90;9.73;;;;;;;-142.75;63.33;77611.75;5032447;28;20027;-76
2021/06/01 00:39:55;;;;;;;14.70;9.95;;;;;;;-142.75;63.01;77611.75;5050459;28;20025;-76
2021/06/01 00:42:20;;;;;;;16.83;10.55;;;;;;;-142.75;63.20;77623.56;5050546;28;20104;-76
2021/06/01 00:44:47;;;;;;;17.83;11.27;;;;;;;-142.75;63.31;77631.44;5050397;28;20036;-78
2021/06/01 00:47:12;;;;;;;17.58;10.45;;;;;;;-142.75;63.45;77641.28;5032775;28;20040;-76
2021/06/01 00:49:37;;;;;;;18.45;10.68;;;;;;;-142.75;63.62;77653.09;5048414;28;20116;-77
2021/06/01 00:52:03;;;;;;;18.17;10.00;;;;;;;-142.75;63.97;77660.97;5019778;28;20064;-76
2021/06/01 00:54:32;;;;;;;19.13;10.38;;;;;;;-142.75;64.17;77666.88;5041391;28;20333;-76
2021/06/01 00:56:57;;;;;;;14.38;9.68;;;;;;;-142.75;64.38;77684.59;5034003;28;20029;-76
2021/06/01 00:59:23;;;;;;;16.80;9.80;;;;;;;-142.75;64.66;77678.69;5030351;28;20451;-76
2021/06/01 01:01:48;;;;;;;16.02;9.35;;;;;;;-142.75;64.54;77680.66;5018289;28;20029;-77
2021/06/01 01:04:14;;;;;;;13.95;8.20;;;;;;;-142.75;63.62;77672.78;5030379;28;20029;-76
2021/06/01 01:07:02;;;;;;;15.43;7.82;;;;;;;-142.75;63.19;77666.88;5045901;28;20028;-76
2021/06/01 01:09:32;;;;;;;12.90;7.82;;;;;;;-142.75;62.77;77655.06;5034835;28;20029;-76
2021/06/01 01:12:08;;;;;;;12.90;7.95;;;;;;;-142.75;63.00;77662.94;5012547;28;20690;-76
2021/06/01 01:14:42;;;;;;;12.68;7.38;;;;;;;-142.75;63.62;77672.78;5030419;28;20063;-76
2021/06/01 01:17:15;;;;;;;13.38;7.93;;;;;;;-142.75;63.76;77686.56;5031491;28;20034;-76
2021/06/01 01:19:49;;;;;;;13.38;7.65;;;;;;;-142.75;64.07;77692.47;5030198;28;20044;-76
2021/06/01 01:22:17;;;;;;;10.20;7.35;;;;;;;-142.75;63.67;77692.47;5043170;28;20059;-75
2021/06/01 01:24:57;;;;;;;11.93;7.45;;;;;;;-142.75;64.07;77700.34;5017164;28;21520;-76
2021/06/01 01:27:32;;;;;;;14.65;6.85;;;;;;;-142.75;64.11;77708.22;5035162;28;20651;-76
2021/06/01 01:30:02;;;;;;;12.80;6.97;;;;;;;-142.75;64.54;77714.13;5034015;28;20025;-76
2021/06/01 01:32:36;;;;;;;12.05;7.45;;;;;;;-142.75;64.70;77725.97;5038088;28;20056;-76
2021/06/01 01:35:03;;;;;;;10.98;6.90;;;;;;;-142.75;64.76;77729.88;5050804;28;20078;-76
2021/06/01 01:37:33;;;;;;;12.63;7.20;;;;;;;-142.75;64.81;77741.72;5043523;28;20033;-76
2021/06/01 01:40:00;;;;;;;10.25;6.80;;;;;;;-142.75;64.94;77731.88;5033714;28;20026;-76
2021/06/01 01:42:28;;;;;;;12.05;7.07;;;;;;;-142.75;64.79;77733.84;5042726;28;20017;-76
2021/06/01 01:44:54;;;;;;;8.35;5.60;;;;;;;-142.75;60.66;77743.69;5024527;28;20499;-76
2021/06/01 01:48:58;;;;;;;8.35;5.85;;;;;;;-142.75;59.38;77700.34;5040734;28;20425;-76
2021/06/01 01:50:18;;;;;;;8.77;6.25;;;;;;;-142.75;61.84;77706.25;5053184;28;20452;-74
2021/06/01 01:52:44;;;;;;;10.57;6.45;;;;;;;-142.75;62.04;77710.19;5036921;28;20039;-75
2021/06/01 01:55:11;;;;;;;10.05;5.70;;;;;;;-142.75;62.19;77723.97;5045878;28;20518;-76
2021/06/01 01:57:41;;;;;;;9.45;6.85;;;;;;;-142.75;62.74;77723.97;5035870;28;20018;-76
2021/06/01 02:00:08;;;;;;;9.55;5.85;;;;;;;-142.75;63.42;77739.75;5037256;28;20452;-76
2021/06/01 02:02:35;;;;;;;10.02;6.65;;;;;;;-142.75;64.09;77759.44;5053144;28;20398;-75
2021/06/01 02:05:02;;;;;;;10.57;5.80;;;;;;;-142.75;64.17;77767.31;5035071;28;20505;-76
2021/06/01 02:07:31;;;;;;;10.65;7.07;;;;;;;-142.75;64.54;77779.13;5052675;28;20052;-76
2021/06/01 02:09:58;;;;;;;11.15;6.15;;;;;;;-142.75;64.85;77790.94;5033210;28;20028;-75
2021/06/01 02:12:23;;;;;;;8.38;5.75;;;;;;;-142.75;65.18;77802.75;5045546;28;20033;-77
2021/06/01 02:14:48;;;;;;;10.48;6.10;;;;;;;-142.75;65.15;77810.63;5033144;28;20111;-76
2021/06/01 02:17:14;;;;;;;11.13;6.13;;;;;;;-142.75;65.01;77814.56;5032708;28;20544;-75
2021/06/01 02:19:39;;;;;;;12.90;5.83;;;;;;;-142.75;65.12;77812.59;5046748;28;20021;-76
2021/06/01 02:23:46;;;;;;;11.82;5.90;;;;;;;-142.75;65.51;77812.59;5046352;28;20347;-76
2021/06/01 02:25:24;;;;;;;10.57;6.15;;;;;;;-142.75;65.28;77812.59;5048400;28;20052;-76
2021/06/01 02:28:13;;;;;;;9.82;6.47;;;;;;;-142.75;65.26;77812.59;5042999;28;20032;-76
2021/06/01 02:30:58;;;;;;;10.15;5.85;;;;;;;-142.75;65.24;77814.56;5039341;28;20029;-76
2021/06/01 02:33:25;;;;;;;11.40;6.30;;;;;;;-142.75;65.53;77820.47;5046441;28;20151;-75
2021/06/01 02:35:52;;;;;;;10.60;6.00;;;;;;;-142.75;65.76;77822.44;5032406;28;20094;-77
2021/06/01 02:38:19;;;;;;;12.05;5.45;;;;;;;-142.75;65.71;77836.22;5022080;28;20029;-76
2021/06/01 02:40:46;;;;;;;10.00;5.85;;;;;;;-142.75;65.54;77838.19;5024693;28;20482;-76
2021/06/01 02:43:14;;;;;;;11.65;5.65;;;;;;;-142.75;65.42;77842.13;5046357;28;20032;-76
2021/06/01 02:45:41;;;;;;;12.73;5.43;;;;;;;-142.75;65.57;77840.16;5048723;28;20435;-76
2021/06/01 02:48:07;;;;;;;12.48;6.18;;;;;;;-142.75;65.22;77832.28;5036572;28;20537;-76
2021/06/01 02:50:33;;;;;;;10.50;5.97;;;;;;;-142.75;65.28;77828.34;5050614;28;20029;-74
2021/06/01 02:53:01;;;;;;;8.00;4.80;;;;;;;-142.75;65.32;77828.34;5045813;23;20528;-76
2021/06/01 02:55:26;;;;;;;16.02;5.68;;;;;;;-142.75;65.43;77836.22;5035166;28;20087;-76
2021/06/01 02:57:53;;;;;;;7.47;5.50;;;;;;;-142.75;65.33;77838.19;5039962;28;20029;-76
2021/06/01 03:00:21;;;;;;;9.73;5.72;;;;;;;-142.75;65.40;77846.06;5038897;28;20028;-77
2021/06/01 03:02:47;;;;;;;10.20;6.00;;;;;;;-142.75;65.49;77848.03;5042350;28;20028;-76
2021/06/01 03:05:13;;;;;;;10.98;5.63;;;;;;;-142.75;65.60;77855.91;5037481;28;20026;-77
2021/06/01 03:07:39;;;;;;;11.55;5.22;;;;;;;-142.75;65.59;77857.88;5020551;28;20029;-77
2021/06/01 03:10:08;;;;;;;7.15;5.32;;;;;;;-142.75;65.50;77857.88;5020090;28;20148;-76
2021/06/01 03:14:59;;;;;;;8.38;6.03;;;;;;;-142.75;65.53;77861.81;5019822;28;20033;-77
2021/06/01 03:17:25;;;;;;;8.45;5.57;;;;;;;-142.75;65.34;77861.81;5017795;28;20622;-76
2021/06/01 03:19:50;;;;;;;9.27;5.57;;;;;;;-142.75;65.11;77853.94;5018077;28;20025;-76
2021/06/01 03:22:16;;;;;;;11.20;5.38;;;;;;;-142.75;65.27;77850.00;5018424;28;20033;-77
2021/06/01 03:24:41;;;;;;;11.88;5.55;;;;;;;-142.75;65.25;77850.00;5000867;28;20636;-77
2021/06/01 03:27:07;;;;;;;9.70;5.15;;;;;;;-142.75;64.83;77846.06;5016895;28;20030;-76
2021/06/01 03:29:32;;;;;;;8.85;5.55;;;;;;;-142.75;65.02;77850.00;4999644;28;20116;-76
2021/06/01 03:31:57;;;;;;;7.35;5.13;;;;;;;-142.75;65.07;77851.97;5016021;28;20045;-75
2021/06/01 03:34:24;;;;;;;7.82;5.40;;;;;;;-142.75;65.59;77857.88;5037261;28;20029;-75
2021/06/01 03:36:49;;;;;;;9.23;6.17;;;;;;;-142.75;65.63;77857.88;5037763;28;20021;-75
2021/06/01 03:39:15;;;;;;;7.57;4.93;;;;;;;-142.75;65.73;77867.72;5020515;28;20059;-75
2021/06/01 03:41:41;;;;;;;9.88;5.63;;;;;;;-142.75;65.83;77877.56;5021498;28;20032;-75
2021/06/01 03:44:06;;;;;;;8.37;5.70;;;;;;;-142.75;65.15;77873.63;5021313;28;20096;-75
2021/06/01 03:46:31;;;;;;;11.80;5.35;;;;;;;-142.75;64.63;77863.78;5037140;28;20310;-75
2021/06/01 03:48:57;;;;;;;9.20;5.35;;;;;;;-142.75;64.75;77853.94;5038956;28;20025;-75
2021/06/01 03:51:22;;;;;;;8.07;5.32;;;;;;;-142.75;65.12;77857.88;5034051;28;20037;-75
2021/06/01 03:53:48;;;;;;;9.02;5.40;;;;;;;-142.75;65.72;77871.66;5030045;28;20068;-75
2021/06/01 03:56:17;;;;;;;9.07;5.47;;;;;;;-142.75;65.74;77873.63;5025980;28;20088;-75
2021/06/01 03:58:42;;;;;;;7.78;5.15;;;;;;;-142.75;65.87;77867.72;5032132;28;20025;-74
2021/06/01 04:01:07;;;;;;;10.57;5.00;;;;;;;-142.75;65.86;77869.69;5014251;28;20025;-74
2021/06/01 04:03:39;;;;;;;9.73;5.65;;;;;;;-142.75;65.95;77877.56;5031394;28;20029;-75
2021/06/01 04:06:04;;;;;;;11.93;5.30;;;;;;;-142.75;66.16;77881.50;5013274;28;20021;-75
2021/06/01 04:08:29;;;;;;;7.25;5.43;;;;;;;-142.75;66.36;77883.47;5033586;28;20048;-75
2021/06/01 04:10:55;;;;;;;10.38;5.45;;;;;;;-142.75;66.28;77871.66;5017076;28;20025;-75
2021/06/01 04:13:20;;;;;;;7.57;5.30;;;;;;;-142.75;66.33;77865.75;5019179;28;20021;-75
2021/06/01 04:15:45;;;;;;;8.55;5.45;;;;;;;-142.75;66.28;77861.81;5023836;28;20117;-75
2021/06/01 04:18:11;;;;;;;10.07;6.22;;;;;;;-142.75;66.33;77863.78;5011799;28;20533;-75
2021/06/01 04:20:36;;;;;;;9.13;6.15;;;;;;;-142.75;66.02;77863.78;5014482;28;20030;-76
2021/06/01 04:23:01;;;;;;;7.95;5.70;;;;;;;-142.75;65.92;77853.94;4997658;28;20033;-76
2021/06/01 04:25:27;;;;;;;8.15;5.95;;;;;;;-142.75;65.11;77842.13;5015534;28;20026;-76
2021/06/01 04:27:53;;;;;;;8.55;5.50;;;;;;;-142.75;64.96;77822.44;5015134;28;20033;-76
2021/06/01 04:30:18;;;;;;;9.32;5.50;;;;;;;-142.75;64.58;77814.56;5013334;28;20030;-76
2021/06/01 04:32:44;;;;;;;10.10;5.18;;;;;;;-142.75;64.16;77806.69;5012456;28;20061;-75
2021/06/01 04:35:10;;;;;;;10.02;5.90;;;;;;;-142.75;63.92;77788.97;5012312;28;20022;-76
2021/06/01 04:37:35;;;;;;;6.93;4.90;;;;;;;-142.75;63.41;77775.19;5012539;28;20509;-76
2021/06/01 04:40:01;;;;;;;7.60;4.93;;;;;;;-142.75;62.89;77763.38;5012896;28;20061;-76
2021/06/01 04:42:26;;;;;;;10.13;5.47;;;;;;;-142.75;62.78;77743.69;5013417;28;20030;-76
2021/06/01 04:44:51;;;;;;;7.63;5.43;;;;;;;-142.75;62.73;77729.88;5013227;28;20032;-76
2021/06/01 04:47:17;;;;;;;9.23;5.53;;;;;;;-142.75;62.84;77710.19;5012012;28;20029;-76
2021/06/01 04:49:42;;;;;;;6.90;4.70;;;;;;;-142.75;63.27;77698.38;5011499;28;20498;-76
2021/06/01 04:52:07;;;;;;;11.00;5.10;;;;;;;-142.75;63.67;77684.59;5011351;28;20025;-76
2021/06/01 04:54:33;;;;;;;10.93;5.15;;;;;;;-142.75;63.97;77676.72;4994456;28;20022;-76
2021/06/01 04:56:58;;;;;;;10.30;5.38;;;;;;;-142.75;60.51;77660.97;5011209;28;20450;-76
2021/06/01 04:59:24;;;;;;;11.98;5.30;;;;;;;-142.75;58.99;77637.34;5011269;28;20026;-76
2021/06/01 05:01:49;;;;;;;8.70;5.00;;;;;;;-142.75;56.79;77594.03;5011289;28;20036;-75
2021/06/01 05:04:14;;;;;;;8.70;5.60;;;;;;;-142.75;56.17;77562.53;5015366;28;20026;-76
2021/06/01 05:06:39;;;;;;;7.82;5.03;;;;;;;-142.75;55.95;77538.91;5014997;28;20040;-75
2021/06/01 05:09:05;;;;;;;10.32;5.40;;;;;;;-142.75;55.56;77527.09;5015313;28;20117;-76
2021/06/01 05:11:33;;;;;;;11.00;5.38;;;;;;;-142.75;56.10;77507.41;5014924;28;20427;-76
2021/06/01 05:13:58;;;;;;;8.65;5.45;;;;;;;-142.75;56.10;77495.59;5027507;28;20021;-75
2021/06/01 05:16:24;;;;;;;8.13;5.32;;;;;;;-142.75;54.93;77487.72;5022085;28;20499;-75
2021/06/01 05:18:49;;;;;;;7.45;5.70;;;;;;;-142.75;55.53;77468.03;5010607;28;20041;-76
2021/06/01 05:21:15;;;;;;;9.13;5.88;;;;;;;-142.75;55.32;77440.44;5032625;28;20037;-75
2021/06/01 05:23:40;;;;;;;9.43;5.38;;;;;;;-142.75;55.27;77432.56;5016084;28;20033;-75
2021/06/01 05:26:06;;;;;;;8.43;5.47;;;;;;;-142.75;54.35;77405.00;5031079;28;20465;-76
2021/06/01 05:28:31;;;;;;;12.23;5.60;;;;;;;-142.75;54.52;77381.38;5011623;28;20029;-75
2021/06/01 05:33:26;;;;;;;9.27;4.93;;;;;;;-142.75;52.62;77334.13;5014931;28;20049;-75
2021/06/01 05:35:54;;;;;;;12.55;5.63;;;;;;;-142.75;51.30;77312.47;5014487;28;20040;-74
2021/06/01 05:38:27;;;;;;;9.27;4.88;;;;;;;-142.75;50.84;77298.69;5015004;28;20079;-75
2021/06/01 05:40:54;;;;;;;11.20;5.43;;;;;;;-142.75;51.71;77275.06;4997350;28;20484;-75
2021/06/01 05:43:19;;;;;;;11.48;5.25;;;;;;;-142.75;51.19;77245.53;4997217;28;20431;-75
2021/06/01 05:45:45;;;;;;;9.88;5.38;;;;;;;-142.75;50.74;77200.25;5015855;28;20083;-76
2021/06/01 05:48:12;;;;;;;9.18;5.40;;;;;;;-142.75;50.85;77188.44;5033747;28;20032;-75
2021/06/01 05:50:37;;;;;;;8.48;5.22;;;;;;;-142.75;48.56;77156.94;5012035;28;20461;-76
2021/06/01 05:53:05;;;;;;;8.73;5.50;;;;;;;-142.75;48.41;77147.09;5024853;28;20057;-76
2021/06/01 05:55:31;;;;;;;11.02;5.22;;;;;;;-142.75;47.42;77125.44;5013369;28;20486;-76
2021/06/01 05:57:56;;;;;;;9.98;5.00;;;;;;;-142.75;47.96;77097.88;5029419;28;20109;-75
2021/06/01 06:00:23;;;;;;;11.30;5.53;;;;;;;-142.75;47.46;77095.91;5022547;28;20033;-76
2021/06/01 06:02:49;;;;;;;7.75;5.07;;;;;;;-142.75;48.70;77084.09;5034618;28;20045;-76
2021/06/01 06:05:14;;;;;;;9.27;5.35;;;;;;;-142.75;46.70;77044.72;5016523;28;20029;-75
2021/06/01 06:07:40;;;;;;;7.43;4.72;;;;;;;-142.75;47.14;77027.00;5016374;28;20032;-75
2021/06/01 06:10:07;;;;;;;8.80;5.28;;;;;;;-142.75;46.27;76981.72;5034304;28;20040;-76
2021/06/01 06:12:33;;;;;;;11.52;5.68;;;;;;;-142.75;47.31;77005.34;5016182;28;20463;-76
2021/06/01 06:14:59;;;;;;;10.90;5.43;;;;;;;-142.75;46.13;76965.97;5015982;28;20021;-76
2021/06/01 06:17:42;;;;;;;14.70;5.60;;;;;;;-142.75;45.53;76930.53;5013579;28;20399;-75
2021/06/01 06:20:08;;;;;;;9.50;5.45;;;;;;;-142.75;45.58;76922.66;4996441;28;20026;-76
2021/06/01 06:22:35;;;;;;;9.02;5.07;;;;;;;-142.75;46.00;76918.72;5002124;28;20083;-75
2021/06/01 06:25:01;;;;;;;8.70;5.47;;;;;;;-142.75;44.33;76849.81;5033399;28;20519;-75
2021/06/01 06:27:26;;;;;;;11.00;4.90;;;;;;;-142.75;44.41;76893.13;5033042;28;20021;-75
2021/06/01 06:29:51;;;;;;;;;;;;;;;-142.75;46.07;76906.91;5016371;28;20025;-76
2021/06/01 06:32:17;;;;;;;10.80;5.53;;;;;;;-142.75;44.53;76826.19;5033635;28;19995;-76
2021/06/01 06:34:43;;;;;;;;;;;;;;;-142.75;45.13;76777.00;5016047;28;20026;-77
2021/06/01 06:37:08;;;;;;;12.70;5.97;;;;;;;-142.75;44.32;76755.34;5033222;28;19967;-76
2021/06/01 06:39:34;;;;;;;;;;;;;;;-142.75;42.96;76710.06;5033748;28;20029;-76
2021/06/01 06:42:00;;;;;;;13.15;6.05;;;;;;;-142.75;44.23;76682.50;5005063;28;19928;-76
2021/06/01 06:44:25;;;;;;;;;;;;;;;-142.75;43.34;76619.50;5013470;28;20030;-75
2021/06/01 06:47:04;;;;;;;10.80;5.45;;;;;;;-142.75;42.11;76566.34;5013029;28;20343;-76
2021/06/01 06:49:32;;;;;;;8.07;5.03;;;;;;;-142.75;41.37;76588.00;5013373;28;20021;-76
2021/06/01 06:51:57;;;;;;;10.13;5.72;;;;;;;-142.75;41.60;76564.38;5006413;28;20032;-75
2021/06/01 06:54:22;;;;;;;;;;;;;;;-142.75;41.26;76483.69;5007442;28;20021;-76
2021/06/01 06:56:47;;;;;;;9.63;5.18;;;;;;;-142.75;41.11;76503.38;5014310;28;19962;-76
2021/06/01 06:59:13;;;;;;;9.75;5.25;;;;;;;-142.75;40.71;76471.88;5013184;28;20105;-75
2021/06/01 07:01:38;;;;;;;7.68;5.35;;;;;;;-142.75;40.36;76436.44;5012770;28;20029;-76
2021/06/01 07:04:03;;;;;;;10.80;6.13;;;;;;;-142.75;39.94;76436.44;5016316;28;20029;-75
2021/06/01 07:06:29;;;;;;;7.60;5.70;;;;;;;-142.75;39.96;76473.84;5032505;28;20048;-75
2021/06/01 07:08:54;;;;;;;9.30;6.05;;;;;;;-142.75;40.55;76487.63;5031560;28;20112;-75
2021/06/01 07:11:19;;;;;;;9.52;6.45;;;;;;;-142.75;40.64;76487.63;5031279;28;20029;-75
2021/06/01 07:13:48;;;;;;;11.00;6.13;;;;;;;-142.75;40.41;76452.19;5013995;28;20079;-75
2021/06/01 07:16:14;;;;;;;9.82;6.00;;;;;;;-142.75;40.00;76424.63;5030627;28;20519;-75
2021/06/01 07:18:41;;;;;;;10.10;5.93;;;;;;;-142.75;40.06;76357.69;5030116;28;20036;-75
2021/06/01 07:21:07;;;;;;;8.65;5.60;;;;;;;-142.75;39.31;76294.72;5014040;28;20083;-75
2021/06/01 07:23:32;;;;;;;8.38;5.72;;;;;;;-142.75;38.29;76332.13;5030654;28;20021;-75
2021/06/01 07:25:58;;;;;;;11.10;6.68;;;;;;;-142.75;38.69;76326.22;5012813;28;20037;-74
2021/06/01 07:28:23;;;;;;;10.60;6.03;;;;;;;-142.75;38.45;76277.00;5031486;28;20107;-75
2021/06/01 07:30:49;;;;;;;11.68;6.20;;;;;;;-142.75;39.38;76312.44;5031209;28;20056;-75
2021/06/01 07:33:14;;;;;;;9.43;5.93;;;;;;;-142.75;38.98;76223.84;5013380;28;20060;-77
2021/06/01 07:35:40;;;;;;;16.30;6.82;;;;;;;-142.75;39.12;76314.41;5030865;28;20112;-75
2021/06/01 07:38:05;;;;;;;10.98;6.45;;;;;;;-142.75;39.55;76286.84;5030343;28;20391;-75
2021/06/01 07:40:31;;;;;;;9.07;5.80;;;;;;;-142.75;38.33;76186.47;5031044;28;20025;-75
2021/06/01 07:42:56;;;;;;;9.88;6.53;;;;;;;-142.75;37.82;76158.91;5030570;28;20078;-76
2021/06/01 07:45:24;;;;;;;9.82;6.35;;;;;;;-142.75;37.25;76149.06;5030499;28;20064;-75
2021/06/01 07:47:49;;;;;;;10.65;7.07;;;;;;;-142.75;38.06;76137.25;5030920;28;20021;-76
2021/06/01 07:50:15;;;;;;;10.23;6.55;;;;;;;-142.75;37.62;76162.84;5030776;28;20028;-75
2021/06/01 07:52:40;;;;;;;12.93;6.30;;;;;;;-142.75;37.66;76121.50;5012467;28;20118;-76
2021/06/01 07:55:06;;;;;;;10.95;6.28;;;;;;;-142.75;35.96;75954.22;5030256;28;20078;-75
2021/06/01 07:57:31;;;;;;;8.90;5.97;;;;;;;-142.75;36.94;75997.50;5030249;28;20487;-74
2021/06/01 07:59:56;;;;;;;9.88;6.35;;;;;;;-142.75;36.25;75989.63;5013025;28;20388;-76
2021/06/01 08:02:24;;;;;;;10.57;6.38;;;;;;;-142.75;35.48;76021.13;5030543;28;20029;-76
2021/06/01 08:04:49;;;;;;;8.45;5.70;;;;;;;-142.75;35.39;75942.41;5012536;28;20037;-76
2021/06/01 08:07:16;;;;;;;9.30;5.70;;;;;;;-142.75;35.83;76064.44;5012005;28;20483;-74
2021/06/01 08:09:42;;;;;;;9.70;6.03;;;;;;;-142.75;35.39;76050.66;5012871;28;20387;-76
2021/06/01 08:12:08;;;;;;;9.13;6.32;;;;;;;-142.75;36.86;76034.91;5012491;28;20163;-75
2021/06/01 08:14:33;;;;;;;11.18;6.47;;;;;;;-142.75;35.93;75969.94;5029989;28;20111;-75
2021/06/01 08:16:59;;;;;;;9.07;6.35;;;;;;;-142.75;36.29;76030.97;5029337;28;20140;-76
2021/06/01 08:19:31;;;;;;;9.57;6.13;;;;;;;-142.75;36.06;76058.53;5029923;28;20029;-75
2021/06/01 08:24:33;;;;;;;8.30;5.75;;;;;;;-142.75;35.55;75967.97;5029962;28;20029;-75
2021/06/01 08:26:59;;;;;;;11.80;6.88;;;;;;;-142.75;35.46;75991.59;5012091;28;20052;-75
2021/06/01 08:29:24;;;;;;;11.70;6.68;;;;;;;-142.75;34.88;75905.00;5012371;28;20133;-76
2021/06/01 08:31:49;;;;;;;11.25;6.13;;;;;;;-142.75;34.52;75932.56;5029822;28;20029;-75
2021/06/01 08:34:15;;;;;;;12.00;6.70;;;;;;;-142.75;34.46;75859.72;5030419;28;20148;-74
2021/06/01 08:36:41;;;;;;;14.70;6.75;;;;;;;-142.75;34.14;75861.69;5028920;28;20025;-75
2021/06/01 08:39:09;;;;;;;10.80;6.25;;;;;;;-142.75;33.72;75751.50;5029975;28;20028;-76
2021/06/01 08:41:35;;;;;;;9.00;6.05;;;;;;;-142.75;32.79;75718.03;5011942;28;20167;-76
2021/06/01 08:44:03;;;;;;;10.77;6.05;;;;;;;-142.75;33.60;75720.00;5012014;28;20041;-76
2021/06/01 08:46:29;;;;;;;10.48;5.47;;;;;;;-142.75;34.04;75720.00;5029507;28;20503;-75
2021/06/01 08:48:55;;;;;;;9.13;5.88;;;;;;;-142.75;32.36;75718.03;5029790;28;20033;-75
2021/06/01 08:51:22;;;;;;;12.52;6.82;;;;;;;-142.75;32.40;75708.19;5029463;28;20573;-75
2021/06/01 08:53:50;;;;;;;13.65;5.70;;;;;;;-142.75;32.24;75672.78;5029741;28;20152;-76
2021/06/01 08:56:15;;;;;;;8.60;5.07;;;;;;;-142.75;32.24;75538.94;5029448;28;20036;-76
2021/06/01 08:58:43;;;;;;;11.60;5.45;;;;;;;-142.75;30.81;75694.41;5029679;28;20403;-76
2021/06/01 09:01:09;;;;;;;7.88;5.10;;;;;;;-142.75;31.58;75704.25;5029542;28;20022;-75
2021/06/01 09:03:36;;;;;;;9.40;5.50;;;;;;;-142.75;32.20;75712.13;5029791;28;20096;-76
2021/06/01 09:06:16;;;;;;;8.77;4.70;;;;;;;-142.75;31.03;75700.31;5011679;28;20117;-76
2021/06/01 09:11:50;;;;;;;7.70;4.95;;;;;;;-142.75;30.33;75475.97;5010817;28;20519;-76
2021/06/01 09:22:36;;;;;;;5.22;3.75;;;;;;;-142.75;31.21;75721.97;5010002;28;20033;-73
2021/06/01 09:25:48;;;;;;;5.03;3.22;;;;;;;-142.75;29.85;75676.69;5009483;28;20435;-72
2021/06/01 09:28:06;;;;;;;8.13;3.63;;;;;;;-142.75;31.28;75745.59;5025701;28;20040;-72
2021/06/01 09:30:40;;;;;;;9.45;3.13;;;;;;;-142.75;29.40;75680.63;5029201;28;20036;-73
2021/06/01 09:33:16;;;;;;;6.97;3.25;;;;;;;-142.75;29.91;75666.88;5029385;28;20025;-75
2021/06/01 09:35:54;;;;;;;6.50;4.38;;;;;;;-142.75;29.37;75702.28;5029241;28;20022;-74
2021/06/01 09:38:43;;;;;;;4.80;3.15;;;;;;;-142.75;30.82;75765.25;5029332;28;20269;-76
2021/06/01 09:41:13;;;;;;;4.50;3.10;;;;;;;-142.75;28.48;75708.19;5029145;28;20021;-77
2021/06/01 09:43:59;;;;;;;7.97;3.30;;;;;;;-142.75;29.30;75649.16;5011743;28;20711;-75
2021/06/01 09:46:29;;;;;;;6.20;2.83;;;;;;;-142.75;28.63;75645.22;5011338;28;20498;-75
2021/06/01 09:48:56;;;;;;;3.10;2.08;;;;;;;-142.75;30.24;75686.53;5029643;28;20040;-76
2021/06/01 09:51:35;;;;;;;4.82;2.17;;;;;;;-142.75;28.02;75694.41;5014553;28;20044;-75
2021/06/01 09:54:38;;;;;;;6.35;2.30;;;;;;;-142.75;28.14;75714.09;5032647;28;20032;-75
2021/06/01 09:57:26;;;;;;;4.70;2.33;;;;;;;-142.75;29.80;75727.88;5032676;28;20580;-74
2021/06/01 10:00:10;;;;;;;4.88;2.30;;;;;;;-142.75;27.69;75611.75;5032453;28;20033;-76
2021/06/01 10:02:36;;;;;;;5.90;2.08;;;;;;;-142.75;27.97;75696.38;5032527;28;20025;-76
2021/06/01 10:05:19;;;;;;;4.70;2.78;;;;;;;-142.75;27.63;75578.31;5014612;28;20494;-75
2021/06/01 10:07:46;;;;;;;5.88;2.50;;;;;;;-142.75;28.83;75696.38;5014278;28;20025;-76
2021/06/01 10:10:31;;;;;;;4.20;2.50;;;;;;;-142.75;28.17;75662.94;5032349;28;20494;-76
2021/06/01 10:13:03;;;;;;;6.57;3.70;;;;;;;-142.75;27.29;75680.63;5032501;28;20075;-75
2021/06/01 10:15:30;;;;;;;5.53;3.70;;;;;;;-142.75;27.99;75723.94;5032035;28;20025;-75
2021/06/01 10:17:56;;;;;;;5.65;3.92;;;;;;;-142.75;27.98;75672.78;5031980;28;20037;-74
2021/06/01 10:20:24;;;;;;;4.60;3.33;;;;;;;-142.75;29.11;75633.41;5014727;28;20087;-75
2021/06/01 10:22:50;;;;;;;8.68;4.20;;;;;;;-142.75;28.01;75708.19;5031736;28;20842;-75
2021/06/01 10:25:16;;;;;;;7.13;3.30;;;;;;;-142.75;29.53;75670.81;5031978;28;20033;-76
2021/06/01 10:27:45;;;;;;;4.68;3.22;;;;;;;-142.75;28.46;75672.78;5014147;28;20033;-75
2021/06/01 10:30:13;;;;;;;6.65;3.20;;;;;;;-142.75;29.68;75594.06;5014196;28;20029;-75
2021/06/01 10:32:43;;;;;;;4.95;3.25;;;;;;;-142.75;28.14;75542.88;5031796;28;20025;-74
2021/06/01 10:35:12;;;;;;;6.20;4.50;;;;;;;-142.75;28.01;75635.38;5013947;28;20033;-74
2021/06/01 10:48:49;;;;;;;8.95;3.35;;;;;;;-142.75;26.75;75487.78;5031683;28;20048;-72
2021/06/01 10:51:27;;;;;;;5.45;3.90;;;;;;;-142.75;27.78;75597.97;5013569;28;20028;-72
2021/06/01 10:53:52;;;;;;;4.75;2.40;;;;;;;-142.75;26.69;75657.03;5031390;28;20021;-75
2021/06/01 10:56:18;;;;;;;7.25;3.28;;;;;;;-142.75;27.72;75696.38;5031139;28;20105;-75
2021/06/01 10:58:48;;;;;;;8.25;3.47;;;;;;;-142.75;28.17;75712.13;5031455;28;20029;-76
2021/06/01 11:04:13;;;;;;;6.28;3.90;;;;;;;-142.75;28.87;75782.97;5031533;28;20095;-75
2021/06/01 11:06:48;;;;;;;9.60;3.75;;;;;;;-142.75;27.94;75773.13;5030822;28;20543;-74
2021/06/01 11:09:38;;;;;;;5.35;3.67;;;;;;;-142.75;29.01;75786.91;5038198;23;20099;-76
2021/06/01 11:12:17;;;;;;;7.45;3.70;;;;;;;-142.75;28.55;75761.34;5044356;28;20025;-78
2021/06/01 11:14:43;;;;;;;5.50;3.40;;;;;;;-142.75;29.33;75723.94;5038341;28;20260;-76
2021/06/01 11:17:09;;;;;;;5.57;3.53;;;;;;;-142.75;29.40;75531.06;5051521;28;20769;-76
2021/06/01 11:19:55;;;;;;;5.63;3.50;;;;;;;-142.75;29.17;75385.44;5051693;28;20029;-76
2021/06/01 11:22:28;;;;;;;8.98;3.40;;;;;;;-142.75;28.24;75340.19;5051782;28;20033;-76
2021/06/01 11:28:53;;;;;;;6.90;3.22;;;;;;;-142.75;28.43;75558.63;5028409;28;20025;-78
2021/06/01 11:33:38;;;;;;;5.65;3.88;;;;;;;-142.75;28.43;75682.59;5048674;28;20039;-76
2021/06/01 11:36:11;;;;;;;7.05;5.03;;;;;;;-142.75;28.37;75686.53;5022819;28;20033;-77
2021/06/01 11:38:45;;;;;;;7.40;4.70;;;;;;;-142.75;28.30;75712.13;5020848;28;20080;-73
2021/06/01 11:43:57;;;;;;;5.57;3.53;;;;;;;-142.75;29.56;75763.28;5040248;28;20029;-78
2021/06/01 11:51:44;;;;;;;6.35;3.83;;;;;;;-142.75;28.59;75822.34;5044088;28;20084;-77
2021/06/01 11:54:13;;;;;;;8.02;4.75;;;;;;;-142.75;28.54;75867.59;5042440;28;20027;-76
2021/06/01 12:02:42;;;;;;;8.70;4.22;;;;;;;-142.75;29.81;75883.34;5044187;28;20524;-76
2021/06/01 12:19:06;;;;;;;8.07;5.43;;;;;;;-142.75;29.89;75836.13;5044016;28;20039;-75
2021/06/01 12:21:37;;;;;;;9.10;3.90;;;;;;;-142.75;31.48;75822.34;5037015;28;20641;-74
2021/06/01 12:24:11;;;;;;;7.50;3.80;;;;;;;-142.75;29.88;75838.09;5017068;28;20041;-77
2021/06/01 12:32:10;;;;;;;7.57;5.00;;;;;;;-142.75;30.80;75887.28;5046271;28;20047;-77